PS69 weather

Barnhart Airport
Flinton, Pennsylvania, United States

Public forecast

Using degrees Fahrenheit for public forecast. Weather courtesy of forecast.io.

Closest aviation weather report (METAR) to Barnhart Airport

Closest report is Clearfield Lawrence Airport, 20.1 nm (37.3 km) NNE. Retrieved 2019/10/15 19:54 UTC (39 minutes ago):

KFIG 151954Z AUTO VRB05KT 10SM CLR 17/05 A3003 RMK AO2 SLP173 T01720050

Closest aviation forecast (TAF) to Barnhart Airport

Closest forecast is Altoona Blair County Airport, 27.7 nm (51.4 km) SSE. Retrieved 2019/10/15 18:48 UTC (2 hours ago):

TAF KAOO 151745Z 1518/1618 17005KT P6SM FEW050 FM160000 16004KT P6SM SCT250 FM161000 17005KT P6SM VCSH BKN025 FM161300 17010G17KT 3SM -RA BR OVC007 TEMPO 1615/1618 2SM -RA BR OVC003